Time;durP1;ratioP1;P1;durP2;ratioP2;P2;SDS_P1;SDS_P2;PMS_P1;PMS_P2;Temp;Humidity;BMP_temperature;BMP_pressure;BME280_temperature;BME280_humidity;BME280_pressure;Samples;Min_cycle;Max_cycle;Signal;HPM_P1;HPM_P2
2021/12/18 00:02:23;;;;;;;3.78;2.10;;;22.50;56.50;;;;;;5080449;28;20150;-71
2021/12/18 00:04:50;;;;;;;4.50;2.70;;;22.60;56.50;;;;;;5097157;28;20040;-71
2021/12/18 00:07:16;;;;;;;5.20;2.80;;;22.50;56.50;;;;;;5097836;28;20036;-71
2021/12/18 00:09:42;;;;;;;6.45;2.85;;;22.60;56.50;;;;;;5097841;28;20048;-71
2021/12/18 00:12:09;;;;;;;5.40;2.30;;;22.50;56.30;;;;;;5097804;28;20036;-71
2021/12/18 00:14:36;;;;;;;5.88;2.50;;;22.60;56.20;;;;;;5097320;28;20040;-71
2021/12/18 00:17:03;;;;;;;3.72;2.42;;;22.60;56.40;;;;;;5097706;28;20074;-71
2021/12/18 00:19:29;;;;;;;5.63;2.15;;;22.50;56.20;;;;;;5097586;28;20062;-71
2021/12/18 00:21:55;;;;;;;3.72;2.80;;;22.50;56.10;;;;;;5097484;28;20042;-71
2021/12/18 00:24:24;;;;;;;3.53;2.17;;;22.70;56.20;;;;;;5097491;28;20086;-71
2021/12/18 00:26:50;;;;;;;3.95;2.50;;;22.50;56.20;;;;;;5097612;28;20044;-71
2021/12/18 00:29:16;;;;;;;5.07;2.63;;;22.50;56.20;;;;;;5096857;28;20055;-71
2021/12/18 00:31:42;;;;;;;4.47;2.38;;;22.50;56.40;;;;;;5097355;28;20176;-71
2021/12/18 00:34:09;;;;;;;3.10;2.17;;;22.40;56.30;;;;;;5096876;28;20036;-71
2021/12/18 00:36:35;;;;;;;3.25;2.13;;;22.40;56.30;;;;;;5097228;28;20189;-71
2021/12/18 00:39:01;;;;;;;3.92;2.20;;;22.30;56.40;;;;;;5097299;28;20036;-71
2021/12/18 00:44:03;;;;;;;3.83;2.10;;;22.40;56.00;;;;;;5097030;28;20053;-71
2021/12/18 00:46:37;;;;;;;3.35;2.00;;;22.40;56.40;;;;;;5096506;28;20052;-71
2021/12/18 00:49:05;;;;;;;5.43;2.15;;;22.40;56.20;;;;;;5096917;28;20064;-71
2021/12/18 00:51:32;;;;;;;4.35;1.83;;;22.30;56.40;;;;;;5096974;28;20048;-71
2021/12/18 00:53:59;;;;;;;3.88;2.10;;;22.40;56.30;;;;;;5096663;28;20051;-71
2021/12/18 00:56:25;;;;;;;2.75;1.88;;;22.30;56.30;;;;;;5096747;28;20060;-71
2021/12/18 00:58:52;;;;;;;2.45;2.00;;;22.40;56.30;;;;;;5096662;28;20036;-71
2021/12/18 01:01:20;;;;;;;2.08;1.85;;;22.40;56.20;;;;;;5095663;28;20044;-71
2021/12/18 01:03:48;;;;;;;2.08;1.60;;;22.40;56.10;;;;;;5096466;28;20037;-71
2021/12/18 01:06:15;;;;;;;3.67;1.60;;;22.40;56.10;;;;;;5096759;28;20044;-71
2021/12/18 01:08:42;;;;;;;2.03;1.45;;;22.40;56.00;;;;;;5096699;28;20070;-71
2021/12/18 01:24:55;;;;;;;1.80;1.60;;;22.40;55.90;;;;;;5096127;28;20045;-71
2021/12/18 01:27:21;;;;;;;3.88;2.22;;;22.40;56.00;;;;;;5096351;28;20060;-71
2021/12/18 01:29:48;;;;;;;2.13;1.45;;;22.50;56.00;;;;;;5096343;28;20090;-71
2021/12/18 01:32:15;;;;;;;1.70;1.52;;;22.40;55.90;;;;;;5095907;28;20040;-71
2021/12/18 01:34:42;;;;;;;3.15;1.45;;;22.20;55.90;;;;;;5096043;28;20040;-71
2021/12/18 01:37:08;;;;;;;2.58;1.70;;;22.30;56.00;;;;;;5096268;28;20040;-72
2021/12/18 01:39:34;;;;;;;2.85;1.77;;;22.30;56.30;;;;;;5095904;28;20060;-71
2021/12/18 01:52:41;;;;;;;2.90;1.45;;;22.30;55.80;;;;;;5096066;28;20052;-71
2021/12/18 01:55:10;;;;;;;2.00;1.20;;;22.40;55.80;;;;;;5095807;28;20065;-71
2021/12/18 01:57:38;;;;;;;3.50;1.58;;;22.40;55.80;;;;;;5096011;28;20045;-71
2021/12/18 02:00:27;;;;;;;1.77;1.33;;;22.40;55.80;;;;;;5095943;28;20044;-71
2021/12/18 02:02:53;;;;;;;4.28;1.08;;;22.50;55.80;;;;;;5096099;28;20041;-71
2021/12/18 02:05:19;;;;;;;1.83;1.30;;;22.40;55.40;;;;;;5095846;28;20044;-71
2021/12/18 02:07:46;;;;;;;1.20;1.02;;;22.40;55.60;;;;;;5095271;28;20049;-71
2021/12/18 02:10:28;;;;;;;1.90;1.55;;;22.50;55.60;;;;;;5096070;28;20043;-71
2021/12/18 02:13:05;;;;;;;1.83;1.55;;;22.60;55.80;;;;;;5095974;28;20088;-71
2021/12/18 02:21:10;;;;;;;1.52;1.42;;;22.40;55.60;;;;;;5095762;28;20114;-71
2021/12/18 02:23:40;;;;;;;1.48;1.30;;;22.30;55.80;;;;;;5095779;28;20079;-71
2021/12/18 02:26:07;;;;;;;2.05;1.27;;;22.40;56.00;;;;;;5095948;28;20040;-71
2021/12/18 02:28:33;;;;;;;1.73;1.10;;;22.20;55.80;;;;;;5095716;28;20147;-70
2021/12/18 02:30:59;;;;;;;1.38;1.27;;;22.30;55.90;;;;;;5095655;28;20052;-71
2021/12/18 02:33:26;;;;;;;1.58;1.20;;;22.20;55.70;;;;;;5095668;28;20048;-72
2021/12/18 02:35:55;;;;;;;2.60;1.17;;;22.30;55.90;;;;;;5095554;28;20051;-71
2021/12/18 02:38:30;;;;;;;1.38;1.00;;;22.30;55.80;;;;;;5095677;28;20041;-71
2021/12/18 02:41:05;;;;;;;2.17;1.30;;;22.30;55.90;;;;;;5095590;28;20040;-71
2021/12/18 02:43:37;;;;;;;1.30;1.20;;;22.30;55.70;;;;;;5095556;28;20076;-71
2021/12/18 02:46:08;;;;;;;2.53;1.45;;;22.30;55.80;;;;;;5095606;28;20040;-71
2021/12/18 02:48:39;;;;;;;2.70;1.23;;;22.30;55.80;;;;;;5095590;28;20083;-71
2021/12/18 02:51:08;;;;;;;2.85;0.98;;;22.40;55.90;;;;;;5095668;28;20068;-71
2021/12/18 02:53:36;;;;;;;1.73;1.10;;;22.30;55.80;;;;;;5099095;28;20096;-71
2021/12/18 02:56:05;;;;;;;5.85;1.40;;;22.40;55.70;;;;;;5099103;28;20036;-71
2021/12/18 02:58:36;;;;;;;2.75;0.90;;;22.40;55.60;;;;;;5099132;28;20044;-71
2021/12/18 03:01:05;;;;;;;1.35;1.25;;;22.40;55.70;;;;;;5099306;28;20036;-71
2021/12/18 03:03:35;;;;;;;1.73;1.40;;;22.30;55.60;;;;;;5098854;28;20072;-71
2021/12/18 03:25:03;;;;;;;2.03;1.17;;;22.20;56.10;;;;;;5086753;28;20052;-71
2021/12/18 03:27:30;;;;;;;3.17;1.20;;;22.00;56.00;;;;;;5078667;28;20482;-71
2021/12/18 03:29:56;;;;;;;1.50;1.20;;;22.10;56.20;;;;;;5081206;28;20052;-71
2021/12/18 03:32:24;;;;;;;1.17;1.05;;;22.10;56.00;;;;;;5098630;28;20044;-71
2021/12/18 03:34:51;;;;;;;2.47;1.40;;;22.20;55.80;;;;;;5098123;28;20044;-71
2021/12/18 03:37:19;;;;;;;1.92;1.25;;;22.10;55.80;;;;;;5098434;28;20040;-71
2021/12/18 03:39:46;;;;;;;3.33;1.48;;;22.10;55.80;;;;;;5098399;28;20032;-71
2021/12/18 03:42:12;;;;;;;2.53;1.45;;;22.20;55.80;;;;;;5098512;28;20060;-71
2021/12/18 03:44:39;;;;;;;1.73;1.40;;;22.20;55.80;;;;;;5098077;28;20036;-71
2021/12/18 03:47:06;;;;;;;2.00;1.52;;;22.20;55.90;;;;;;5098511;28;20086;-71
2021/12/18 03:49:33;;;;;;;1.95;1.50;;;22.20;55.90;;;;;;5098330;28;20113;-71
2021/12/18 03:51:59;;;;;;;1.63;1.42;;;22.10;55.90;;;;;;5097917;28;20060;-71
2021/12/18 03:54:26;;;;;;;2.22;1.45;;;22.10;55.90;;;;;;5098034;28;20427;-71
2021/12/18 03:56:52;;;;;;;1.90;1.52;;;22.20;55.80;;;;;;5098042;28;20040;-71
2021/12/18 03:59:18;;;;;;;1.80;1.35;;;22.10;55.80;;;;;;5098059;28;20096;-71
2021/12/18 04:01:45;;;;;;;1.90;1.25;;;22.10;55.70;;;;;;5098098;28;20044;-71
2021/12/18 04:04:12;;;;;;;2.35;1.80;;;22.10;55.80;;;;;;5097017;28;20461;-71
2021/12/18 04:06:39;;;;;;;2.10;1.33;;;22.10;55.60;;;;;;5097383;28;20036;-71
2021/12/18 04:09:06;;;;;;;1.85;1.27;;;22.00;55.40;;;;;;5097983;28;20055;-71
2021/12/18 04:11:33;;;;;;;2.47;1.42;;;22.10;55.80;;;;;;5097862;28;20519;-70
2021/12/18 04:14:01;;;;;;;1.38;1.27;;;22.10;55.70;;;;;;5097672;28;20044;-71
2021/12/18 04:16:28;;;;;;;1.98;1.50;;;22.10;55.70;;;;;;5097574;28;20044;-71
2021/12/18 04:18:54;;;;;;;1.50;1.40;;;22.00;55.70;;;;;;5097786;28;20040;-71
2021/12/18 04:21:20;;;;;;;1.88;1.52;;;21.90;55.90;;;;;;5097620;28;20066;-71
2021/12/18 04:23:46;;;;;;;2.22;1.10;;;21.90;55.80;;;;;;5097296;28;20037;-71
2021/12/18 04:26:12;;;;;;;1.38;1.27;;;22.00;55.80;;;;;;5097369;28;20037;-71
2021/12/18 04:28:38;;;;;;;1.17;1.08;;;22.00;55.80;;;;;;5096900;28;20040;-71
2021/12/18 04:31:04;;;;;;;3.05;1.23;;;22.00;55.50;;;;;;5096796;28;20051;-71
2021/12/18 04:33:31;;;;;;;2.03;1.30;;;22.10;55.50;;;;;;5096976;28;20047;-71
2021/12/18 04:35:57;;;;;;;2.00;1.30;;;22.10;55.60;;;;;;5097027;28;20083;-71
2021/12/18 04:38:23;;;;;;;1.10;1.10;;;22.00;55.40;;;;;;5097354;28;20040;-71
2021/12/18 04:40:50;;;;;;;2.65;1.23;;;22.10;55.60;;;;;;5097216;28;20104;-71
2021/12/18 04:43:16;;;;;;;1.05;1.00;;;22.10;55.40;;;;;;5097250;28;20131;-71
2021/12/18 04:45:42;;;;;;;2.45;0.95;;;22.00;55.10;;;;;;5097065;28;20032;-71
2021/12/18 04:48:08;;;;;;;3.13;1.05;;;22.10;55.30;;;;;;5096244;28;20036;-71
2021/12/18 04:50:34;;;;;;;1.58;1.35;;;22.20;55.20;;;;;;5097175;28;20074;-71
2021/12/18 04:53:00;;;;;;;1.55;1.17;;;22.20;55.10;;;;;;5083113;28;20044;-71
2021/12/18 04:55:26;;;;;;;3.08;1.73;;;22.10;55.20;;;;;;5076340;28;20104;-71
2021/12/18 04:57:54;;;;;;;2.38;1.73;;;22.10;55.30;;;;;;5076864;28;20037;-71
2021/12/18 05:00:22;;;;;;;1.95;1.50;;;22.00;55.50;;;;;;5076912;28;20051;-71
2021/12/18 05:02:50;;;;;;;3.22;2.03;;;21.90;55.60;;;;;;5076724;28;20142;-71
2021/12/18 05:05:17;;;;;;;2.63;1.67;;;21.90;55.80;;;;;;5076322;28;20101;-71
2021/12/18 05:07:43;;;;;;;2.00;1.35;;;21.90;55.80;;;;;;5076789;28;20048;-71
2021/12/18 05:10:11;;;;;;;2.28;1.85;;;22.00;55.60;;;;;;5076620;28;20041;-71
2021/12/18 05:12:37;;;;;;;1.50;1.40;;;22.10;55.60;;;;;;5089663;28;20074;-72
2021/12/18 05:15:04;;;;;;;1.80;1.38;;;22.10;55.50;;;;;;5096347;28;20044;-72
2021/12/18 05:17:30;;;;;;;1.23;1.02;;;22.00;55.40;;;;;;5096300;28;20071;-72
2021/12/18 05:19:57;;;;;;;1.70;1.25;;;22.00;55.70;;;;;;5096577;28;20045;-72
2021/12/18 05:22:23;;;;;;;1.20;1.10;;;22.00;56.00;;;;;;5096408;28;20036;-72
2021/12/18 05:24:49;;;;;;;0.75;0.75;;;22.00;55.10;;;;;;5095247;28;20036;-72
2021/12/18 05:27:15;;;;;;;1.40;1.08;;;22.00;56.70;;;;;;5095731;28;20036;-72
2021/12/18 05:29:41;;;;;;;1.05;0.73;;;22.00;58.50;;;;;;5095574;28;20066;-72
2021/12/18 05:32:07;;;;;;;2.25;0.80;;;21.90;59.00;;;;;;5093362;28;20063;-72
2021/12/18 05:34:37;;;;;;;1.70;0.90;;;22.00;59.20;;;;;;5094738;28;20048;-71
2021/12/18 05:37:16;;;;;;;1.75;1.20;;;21.90;59.50;;;;;;5095450;28;20101;-71
2021/12/18 05:39:42;;;;;;;0.93;0.82;;;21.90;59.30;;;;;;5091190;28;20035;-71
2021/12/18 05:42:08;;;;;;;2.05;1.10;;;21.80;59.00;;;;;;5095424;28;20036;-73
2021/12/18 05:44:35;;;;;;;1.02;1.00;;;21.80;59.00;;;;;;5095484;28;20112;-74
2021/12/18 05:47:02;;;;;;;2.53;1.70;;;21.90;59.00;;;;;;5095557;28;20108;-72
2021/12/18 05:49:28;;;;;;;2.58;1.55;;;21.80;59.80;;;;;;5089437;28;20070;-72
2021/12/18 05:51:54;;;;;;;2.20;1.65;;;21.90;59.90;;;;;;5095386;28;20043;-71
2021/12/18 05:54:20;;;;;;;3.25;1.60;;;21.90;59.90;;;;;;5095160;28;20053;-72
2021/12/18 05:56:47;;;;;;;4.63;1.77;;;21.80;59.60;;;;;;5095345;28;20025;-72
2021/12/18 05:59:16;;;;;;;3.92;1.20;;;21.90;59.70;;;;;;5095304;28;20055;-71
2021/12/18 06:01:43;;;;;;;1.85;1.40;;;21.80;59.70;;;;;;5092465;28;20092;-72
2021/12/18 06:04:09;;;;;;;1.60;1.50;;;21.90;60.10;;;;;;5095103;28;20142;-72
2021/12/18 06:06:35;;;;;;;2.08;1.88;;;22.00;60.10;;;;;;5095472;28;20079;-72
2021/12/18 06:09:01;;;;;;;2.55;1.35;;;21.90;60.50;;;;;;5095196;28;20064;-72
2021/12/18 06:11:31;;;;;;;2.13;1.27;;;22.10;65.30;;;;;;5086101;28;20048;-72
2021/12/18 06:13:57;;;;;;;2.88;1.45;;;22.30;63.40;;;;;;5095894;28;20040;-71
2021/12/18 06:16:23;;;;;;;1.77;1.40;;;22.40;63.30;;;;;;5095843;28;20048;-72
2021/12/18 06:18:51;;;;;;;3.42;1.88;;;22.20;63.50;;;;;;5095732;28;20045;-72
2021/12/18 06:21:19;;;;;;;2.08;1.88;;;22.30;64.20;;;;;;5093980;28;20105;-71
2021/12/18 06:23:48;;;;;;;1.38;1.25;;;22.60;68.40;;;;;;5095471;28;20142;-69
2021/12/18 06:26:15;;;;;;;3.22;1.83;;;22.90;70.70;;;;;;5095511;28;20032;-68
2021/12/18 06:28:41;;;;;;;3.15;2.15;;;22.90;69.00;;;;;;5099605;28;20049;-68
2021/12/18 06:31:07;;;;;;;3.33;1.45;;;23.20;70.60;;;;;;5099537;28;20045;-68
2021/12/18 06:33:34;;;;;;;2.05;1.33;;;23.30;62.90;;;;;;5099201;28;20083;-67
2021/12/18 06:36:00;;;;;;;1.83;1.50;;;23.20;60.80;;;;;;5099268;28;20103;-68
2021/12/18 06:38:26;;;;;;;2.78;1.95;;;23.20;58.40;;;;;;5098943;28;20029;-68
2021/12/18 06:40:52;;;;;;;3.90;1.83;;;23.40;56.40;;;;;;5097854;28;20088;-68
2021/12/18 06:43:19;;;;;;;3.88;2.25;;;23.40;54.60;;;;;;5097884;28;20036;-67
2021/12/18 06:45:45;;;;;;;5.60;2.85;;;23.40;52.80;;;;;;5097959;28;20099;-67
2021/12/18 06:48:11;;;;;;;5.88;3.85;;;23.20;51.20;;;;;;5097753;28;20045;-68
2021/12/18 06:50:38;;;;;;;5.95;3.05;;;23.40;50.00;;;;;;5098621;28;20045;-68
2021/12/18 06:53:05;;;;;;;4.15;2.40;;;23.40;49.10;;;;;;5098383;28;20047;-68
2021/12/18 06:55:33;;;;;;;3.25;1.80;;;23.50;49.40;;;;;;5098890;28;20047;-67
2021/12/18 06:57:59;;;;;;;1.77;1.67;;;23.40;49.50;;;;;;5098278;28;20044;-67
2021/12/18 07:00:28;;;;;;;4.65;2.63;;;23.50;50.90;;;;;;5098931;28;20040;-68
2021/12/18 07:02:54;;;;;;;3.80;2.80;;;23.50;51.90;;;;;;5099010;28;20104;-68
2021/12/18 07:05:22;;;;;;;3.33;2.15;;;23.30;51.20;;;;;;5099005;28;20044;-68
2021/12/18 07:07:50;;;;;;;3.72;2.58;;;23.10;52.60;;;;;;5098831;28;20068;-70
2021/12/18 07:10:16;;;;;;;4.90;2.42;;;23.10;53.70;;;;;;5098809;28;20048;-69
2021/12/18 07:12:42;;;;;;;6.30;3.22;;;22.80;54.30;;;;;;5098855;28;20044;-70
2021/12/18 07:15:11;;;;;;;2.83;2.15;;;22.60;55.00;;;;;;5098410;28;20044;-71
2021/12/18 07:17:37;;;;;;;3.50;2.30;;;22.60;45.10;;;;;;5098575;28;20044;-70
2021/12/18 07:20:05;;;;;;;4.47;2.13;;;22.80;44.00;;;;;;5098764;28;20044;-70
2021/12/18 07:22:31;;;;;;;2.80;2.00;;;22.90;43.00;;;;;;5098533;28;20100;-70
2021/12/18 07:24:58;;;;;;;6.25;3.53;;;22.90;42.50;;;;;;5098549;28;20052;-70
2021/12/18 07:27:25;;;;;;;2.35;1.58;;;23.00;42.50;;;;;;5098612;28;20048;-70
2021/12/18 07:29:51;;;;;;;3.22;2.15;;;23.10;44.00;;;;;;5098365;28;20074;-69
2021/12/18 07:32:17;;;;;;;2.97;1.77;;;23.10;42.60;;;;;;5098514;28;20048;-70
2021/12/18 07:34:44;;;;;;;2.85;1.77;;;23.10;43.20;;;;;;5097924;28;20047;-70
2021/12/18 07:37:10;;;;;;;8.55;4.22;;;23.20;42.90;;;;;;5098017;28;20036;-70
2021/12/18 07:39:36;;;;;;;8.35;5.15;;;23.30;45.70;;;;;;5097281;28;20044;-71
2021/12/18 07:42:02;;;;;;;5.18;3.40;;;23.30;51.70;;;;;;5098342;28;20044;-71
2021/12/18 07:44:28;;;;;;;6.13;4.18;;;23.20;52.70;;;;;;5097561;28;20037;-68
2021/12/18 07:46:54;;;;;;;6.15;3.53;;;23.20;53.30;;;;;;5098013;28;20087;-69
2021/12/18 07:49:20;;;;;;;6.03;3.70;;;23.20;54.20;;;;;;5098278;28;20045;-69
2021/12/18 07:51:46;;;;;;;8.05;3.67;;;23.20;54.70;;;;;;5098018;28;20067;-68
2021/12/18 07:54:13;;;;;;;7.38;3.10;;;23.10;55.40;;;;;;5098008;28;20068;-69
2021/12/18 07:56:39;;;;;;;4.45;3.05;;;23.00;55.50;;;;;;5097770;28;20028;-69
2021/12/18 07:59:05;;;;;;;5.75;3.50;;;23.00;55.60;;;;;;5097758;28;20127;-68
2021/12/18 08:01:32;;;;;;;5.78;3.20;;;23.00;55.70;;;;;;5097482;28;20047;-67
2021/12/18 08:03:58;;;;;;;4.13;3.05;;;22.90;55.90;;;;;;5097762;28;20064;-68
2021/12/18 08:06:24;;;;;;;4.93;2.88;;;22.90;56.00;;;;;;5097927;28;20044;-68
2021/12/18 08:08:50;;;;;;;3.50;2.72;;;22.80;56.00;;;;;;5097008;28;20047;-70
2021/12/18 08:11:16;;;;;;;2.50;1.83;;;22.70;56.20;;;;;;5097404;28;20044;-71
2021/12/18 08:13:43;;;;;;;2.65;1.95;;;22.70;56.30;;;;;;5097340;28;20074;-72
2021/12/18 08:16:09;;;;;;;4.35;2.53;;;22.70;56.50;;;;;;5097671;28;20100;-70
2021/12/18 08:18:35;;;;;;;2.95;2.13;;;22.70;57.00;;;;;;5097376;28;20032;-72
2021/12/18 08:21:01;;;;;;;4.28;2.53;;;22.70;57.20;;;;;;5097537;28;20100;-74
2021/12/18 08:23:27;;;;;;;2.25;2.05;;;22.80;57.00;;;;;;5097238;28;20067;-74
2021/12/18 08:25:54;;;;;;;4.88;2.78;;;22.70;57.40;;;;;;5097271;28;20036;-74
2021/12/18 08:28:20;;;;;;;2.80;2.10;;;22.70;57.20;;;;;;5097329;28;20056;-72
2021/12/18 08:30:46;;;;;;;2.60;1.38;;;22.80;56.10;;;;;;5097144;28;20063;-74
2021/12/18 08:33:12;;;;;;;6.50;2.95;;;22.80;48.70;;;;;;5097182;28;20045;-74
2021/12/18 08:35:38;;;;;;;3.55;2.25;;;22.90;52.00;;;;;;5097057;28;20040;-74
2021/12/18 08:38:05;;;;;;;25.10;4.57;;;23.20;50.20;;;;;;5097145;28;20040;-74
2021/12/18 08:40:33;;;;;;;10.45;5.10;;;23.10;48.70;;;;;;5096882;28;20041;-73
2021/12/18 08:42:59;;;;;;;3.40;2.03;;;23.20;46.00;;;;;;5097060;28;20048;-72
2021/12/18 08:45:26;;;;;;;8.80;4.13;;;23.20;44.10;;;;;;5097077;28;20075;-74
2021/12/18 08:47:53;;;;;;;8.70;4.15;;;23.20;48.60;;;;;;5095726;28;20048;-72
2021/12/18 08:50:20;;;;;;;5.88;3.15;;;23.40;44.30;;;;;;5096508;28;20036;-73
2021/12/18 08:52:49;;;;;;;4.15;2.67;;;23.30;43.70;;;;;;5096828;28;20044;-71
2021/12/18 08:55:17;;;;;;;3.60;2.22;;;23.40;44.00;;;;;;5096470;28;20044;-73
2021/12/18 08:57:44;;;;;;;5.28;3.80;;;23.40;42.40;;;;;;5096288;28;20047;-73
2021/12/18 09:00:13;;;;;;;4.63;2.65;;;23.50;51.40;;;;;;5096850;28;20040;-70
2021/12/18 09:02:40;;;;;;;3.67;2.40;;;23.50;52.10;;;;;;5096159;28;20041;-72
2021/12/18 09:05:08;;;;;;;3.25;2.10;;;23.50;52.00;;;;;;5096557;28;20059;-75
2021/12/18 09:07:34;;;;;;;5.43;2.15;;;23.70;51.40;;;;;;5096379;28;20064;-71
2021/12/18 09:10:01;;;;;;;4.95;2.55;;;23.60;49.90;;;;;;5096620;28;20044;-74
2021/12/18 09:12:27;;;;;;;5.43;3.20;;;23.70;49.10;;;;;;5095817;28;20040;-74
2021/12/18 09:14:54;;;;;;;4.15;2.53;;;23.50;47.60;;;;;;5096286;28;20087;-74
2021/12/18 09:17:20;;;;;;;5.85;2.88;;;23.50;46.00;;;;;;5096188;28;20029;-74
2021/12/18 09:19:46;;;;;;;1.60;1.48;;;23.60;46.10;;;;;;5096520;28;20041;-73
2021/12/18 09:22:12;;;;;;;3.33;1.73;;;23.50;46.90;;;;;;5096304;28;20063;-75
2021/12/18 09:24:39;;;;;;;8.00;3.83;;;23.60;45.50;;;;;;5096182;28;20040;-75
2021/12/18 09:27:06;;;;;;;3.15;1.92;;;23.50;44.60;;;;;;5095576;28;20249;-74
2021/12/18 09:29:32;;;;;;;3.08;1.95;;;23.50;44.40;;;;;;5096219;28;20044;-75
2021/12/18 09:31:59;;;;;;;4.22;1.63;;;23.50;44.50;;;;;;5095713;28;20116;-72
2021/12/18 09:34:30;;;;;;;3.97;2.42;;;23.50;44.20;;;;;;5096249;28;20033;-71
2021/12/18 09:36:57;;;;;;;3.67;2.25;;;23.40;43.00;;;;;;5096316;28;20060;-69
2021/12/18 09:39:23;;;;;;;4.63;2.17;;;23.50;39.80;;;;;;5095464;28;20059;-70
2021/12/18 09:41:51;;;;;;;3.38;2.58;;;23.50;42.40;;;;;;5096330;28;20044;-70
2021/12/18 09:44:23;;;;;;;3.95;2.30;;;23.60;49.80;;;;;;5096270;28;20048;-70
2021/12/18 09:46:50;;;;;;;5.35;2.63;;;23.60;46.80;;;;;;5096209;28;20040;-70
2021/12/18 09:49:22;;;;;;;5.63;2.15;;;23.70;47.20;;;;;;5095797;28;20048;-71
2021/12/18 09:51:49;;;;;;;2.25;1.67;;;23.80;48.20;;;;;;5096176;28;20052;-70
2021/12/18 09:54:18;;;;;;;3.60;2.20;;;23.80;51.10;;;;;;5095813;28;20052;-71
2021/12/18 09:56:45;;;;;;;2.92;1.98;;;23.70;39.10;;;;;;5095991;28;20040;-71
2021/12/18 09:59:12;;;;;;;1.77;1.50;;;23.70;39.40;;;;;;5096022;28;20052;-72
2021/12/18 10:01:40;;;;;;;3.55;1.88;;;23.50;40.20;;;;;;5095391;28;20047;-72
2021/12/18 10:04:27;;;;;;;1.38;1.10;;;23.70;39.00;;;;;;5095972;28;20055;-72
2021/12/18 10:06:54;;;;;;;2.33;1.40;;;23.70;41.90;;;;;;5095723;28;20041;-72
2021/12/18 10:09:20;;;;;;;3.70;1.92;;;23.60;44.60;;;;;;5095057;28;20063;-72
2021/12/18 10:11:47;;;;;;;2.80;2.00;;;23.70;46.00;;;;;;5095767;28;20032;-70
2021/12/18 10:14:15;;;;;;;3.38;2.10;;;23.60;42.70;;;;;;5095814;28;20094;-70
2021/12/18 10:16:43;;;;;;;3.63;1.80;;;23.50;40.50;;;;;;5095737;28;20037;-70
2021/12/18 10:19:27;;;;;;;5.40;2.20;;;23.40;41.20;;;;;;5095611;28;20036;-70
2021/12/18 10:21:59;;;;;;;4.53;1.85;;;23.60;40.50;;;;;;5061952;28;20037;-70
2021/12/18 10:24:27;;;;;;;6.28;2.70;;;23.50;38.50;;;;;;5078384;28;20271;-70
2021/12/18 10:26:53;;;;;;;5.82;3.65;;;23.50;44.70;;;;;;5096026;28;20040;-70
2021/12/18 10:29:28;;;;;;;2.63;2.30;;;23.70;46.60;;;;;;5095747;28;20055;-69
2021/12/18 10:31:55;;;;;;;4.60;2.70;;;23.80;47.30;;;;;;5095496;28;20054;-70
2021/12/18 10:34:23;;;;;;;3.58;2.40;;;23.70;47.60;;;;;;5095569;28;20052;-70
2021/12/18 10:37:23;;;;;;;9.88;5.55;;;23.70;47.20;;;;;;5095815;28;20044;-71
2021/12/18 10:39:55;;;;;;;12.50;6.78;;;23.60;47.60;;;;;;5095510;28;20047;-71
2021/12/18 10:42:31;;;;;;;3.38;2.50;;;23.50;47.50;;;;;;5095806;28;20040;-70
2021/12/18 10:45:21;;;;;;;2.90;1.90;;;23.40;47.10;;;;;;5095749;28;20041;-71
2021/12/18 10:47:53;;;;;;;1.50;1.40;;;23.60;47.50;;;;;;5095725;28;20060;-71
2021/12/18 10:50:30;;;;;;;1.75;1.58;;;23.40;47.70;;;;;;5095658;28;20051;-71
2021/12/18 10:53:30;;;;;;;2.25;2.00;;;23.40;48.30;;;;;;5095527;28;20040;-72
2021/12/18 10:55:59;;;;;;;3.15;2.63;;;23.40;48.70;;;;;;5095601;28;20048;-70
2021/12/18 10:58:29;;;;;;;3.15;1.55;;;23.40;48.10;;;;;;5095456;28;20104;-70
2021/12/18 11:01:14;;;;;;;3.33;1.95;;;23.40;49.80;;;;;;5095411;28;20052;-70
2021/12/18 11:03:46;;;;;;;1.58;1.48;;;23.20;48.60;;;;;;5095275;28;20033;-71
2021/12/18 11:06:20;;;;;;;4.10;1.95;;;23.30;50.90;;;;;;5095427;28;20067;-70
2021/12/18 11:08:58;;;;;;;2.17;1.80;;;23.20;51.90;;;;;;5093199;28;20064;-71
2021/12/18 11:14:08;;;;;;;2.42;1.55;;;23.30;49.80;;;;;;5098134;28;20098;-70
2021/12/18 11:16:36;;;;;;;3.08;2.08;;;23.20;51.10;;;;;;5098964;28;20047;-72
2021/12/18 11:19:23;;;;;;;4.90;1.98;;;23.20;49.50;;;;;;5098803;28;20071;-70
2021/12/18 11:21:55;;;;;;;4.60;2.05;;;23.10;49.50;;;;;;5098700;28;20040;-71
2021/12/18 11:24:35;;;;;;;2.97;1.98;;;23.00;50.80;;;;;;5098842;28;20095;-70
2021/12/18 11:27:17;;;;;;;1.35;1.13;;;22.80;51.40;;;;;;5098621;28;20044;-71
2021/12/18 11:30:06;;;;;;;2.47;1.77;;;22.80;51.70;;;;;;5098407;28;20081;-70
2021/12/18 11:32:40;;;;;;;1.98;1.48;;;22.80;50.90;;;;;;5098469;28;20116;-71
2021/12/18 11:35:13;;;;;;;3.22;2.35;;;22.80;51.70;;;;;;5097991;28;20068;-71
2021/12/18 11:37:43;;;;;;;3.50;1.13;;;22.90;53.00;;;;;;5098569;28;20048;-71
2021/12/18 11:40:18;;;;;;;3.50;1.55;;;22.80;52.60;;;;;;5097716;28;20029;-71
2021/12/18 11:42:44;;;;;;;4.53;2.10;;;22.80;54.10;;;;;;5098024;28;20051;-70
2021/12/18 11:45:12;;;;;;;5.22;2.30;;;22.80;54.70;;;;;;5098221;28;20082;-73
2021/12/18 11:47:44;;;;;;;8.80;3.20;;;22.70;55.00;;;;;;5098253;28;20045;-70
2021/12/18 11:50:27;;;;;;;3.50;2.60;;;22.80;55.20;;;;;;5098026;28;20048;-72
2021/12/18 11:53:13;;;;;;;2.05;1.70;;;22.80;55.60;;;;;;5098253;28;20075;-72
2021/12/18 11:55:48;;;;;;;1.58;1.27;;;22.70;55.70;;;;;;5097864;28;20052;-71
2021/12/18 11:58:20;;;;;;;4.50;1.58;;;22.70;54.60;;;;;;5097869;28;20040;-70
2021/12/18 12:01:02;;;;;;;2.50;1.77;;;22.60;54.00;;;;;;5097919;28;20044;-70
2021/12/18 12:03:43;;;;;;;2.30;1.88;;;22.60;53.40;;;;;;5097946;28;20036;-69
2021/12/18 12:06:19;;;;;;;2.40;1.40;;;22.70;53.00;;;;;;5097690;28;20045;-70
2021/12/18 12:08:45;;;;;;;3.28;1.20;;;22.70;53.40;;;;;;5097869;28;20067;-70
2021/12/18 12:11:21;;;;;;;1.30;1.17;;;22.70;53.00;;;;;;5097698;28;20048;-71
2021/12/18 12:14:02;;;;;;;2.25;1.27;;;22.80;51.10;;;;;;5097581;28;20436;-71
2021/12/18 12:17:01;;;;;;;5.72;1.70;;;22.90;52.60;;;;;;5097554;28;20032;-71
2021/12/18 12:19:33;;;;;;;5.93;2.38;;;22.80;52.40;;;;;;5089737;28;20051;-70
2021/12/18 12:22:02;;;;;;;7.78;3.53;;;22.90;52.80;;;;;;5097626;28;20032;-71
2021/12/18 12:24:57;;;;;;;2.50;1.88;;;23.00;52.90;;;;;;5096813;28;20065;-70
2021/12/18 12:27:30;;;;;;;2.40;1.52;;;23.00;53.30;;;;;;5097484;28;20051;-71
2021/12/18 12:30:01;;;;;;;3.15;2.30;;;22.90;53.50;;;;;;5097136;28;20047;-71
2021/12/18 12:32:29;;;;;;;1.58;1.48;;;23.00;53.40;;;;;;5096733;28;20052;-70
2021/12/18 12:35:21;;;;;;;3.20;2.45;;;22.90;53.70;;;;;;5097275;28;20056;-70
2021/12/18 12:37:50;;;;;;;1.95;1.67;;;23.00;53.90;;;;;;5095216;28;20047;-70
2021/12/18 12:40:28;;;;;;;2.28;1.58;;;23.00;53.80;;;;;;5096405;28;20048;-70
2021/12/18 12:43:20;;;;;;;2.08;1.50;;;23.00;53.60;;;;;;5093713;28;20075;-70
2021/12/18 12:45:49;;;;;;;2.70;2.03;;;23.10;53.20;;;;;;5097039;28;20064;-70
2021/12/18 12:48:17;;;;;;;2.67;1.90;;;23.20;52.80;;;;;;5097002;28;20048;-70
2021/12/18 12:50:53;;;;;;;3.67;2.00;;;23.30;52.50;;;;;;5096662;28;20079;-70
2021/12/18 12:53:19;;;;;;;2.55;1.77;;;23.30;52.60;;;;;;5096920;28;20047;-70
2021/12/18 12:55:50;;;;;;;1.52;1.42;;;23.30;51.70;;;;;;5096765;28;20060;-70
2021/12/18 12:58:26;;;;;;;1.90;1.67;;;23.20;51.60;;;;;;5096921;28;20047;-70
2021/12/18 13:00:59;;;;;;;2.00;1.88;;;23.30;52.00;;;;;;5096549;28;20036;-70
2021/12/18 13:03:29;;;;;;;2.85;1.77;;;23.30;51.90;;;;;;5096637;28;20064;-70
2021/12/18 13:05:59;;;;;;;3.67;1.98;;;23.30;51.20;;;;;;5096672;28;20388;-70
2021/12/18 13:08:26;;;;;;;2.13;1.70;;;23.20;52.30;;;;;;5096645;28;20032;-70
2021/12/18 13:10:54;;;;;;;2.17;1.98;;;23.40;52.30;;;;;;5096461;28;20036;-70
2021/12/18 13:13:23;;;;;;;2.00;1.48;;;23.40;52.20;;;;;;5096228;28;20038;-70
2021/12/18 13:16:22;;;;;;;2.25;1.80;;;23.40;52.00;;;;;;5096290;28;20045;-70
2021/12/18 13:18:54;;;;;;;1.95;1.50;;;23.40;51.70;;;;;;5063363;28;20088;-69
2021/12/18 13:21:24;;;;;;;1.52;1.42;;;23.50;51.90;;;;;;5096081;28;20040;-69
2021/12/18 13:23:52;;;;;;;2.45;1.85;;;23.50;51.50;;;;;;5096440;28;20044;-69
2021/12/18 13:26:23;;;;;;;4.05;2.33;;;23.40;51.40;;;;;;5096383;28;20064;-69
2021/12/18 13:28:58;;;;;;;1.63;1.48;;;23.40;51.20;;;;;;5096328;28;20048;-69
2021/12/18 13:31:27;;;;;;;3.17;2.08;;;23.40;51.20;;;;;;5096124;28;20107;-70
2021/12/18 13:33:57;;;;;;;3.83;2.33;;;23.30;51.20;;;;;;5096029;28;20040;-70
2021/12/18 13:36:23;;;;;;;2.45;1.90;;;23.40;51.40;;;;;;5095469;28;20044;-69
2021/12/18 13:38:49;;;;;;;3.05;1.60;;;23.30;50.90;;;;;;5096175;28;20044;-70
2021/12/18 13:41:16;;;;;;;2.95;1.85;;;23.20;51.40;;;;;;5094049;28;20104;-69
2021/12/18 13:43:43;;;;;;;2.10;1.42;;;23.30;51.50;;;;;;5094337;28;20041;-70
2021/12/18 13:46:13;;;;;;;3.47;1.88;;;23.20;51.60;;;;;;5095276;28;20036;-69
2021/12/18 13:48:44;;;;;;;3.95;2.35;;;23.30;51.80;;;;;;5095957;28;20024;-71
2021/12/18 13:51:12;;;;;;;3.75;2.33;;;23.40;51.90;;;;;;5096020;28;20051;-70